createdAt,value
2024-01-30T00:00:49.344Z,100634.58
2024-01-30T00:06:12.287Z,100633.02
2024-01-30T00:11:14.040Z,100629.77
2024-01-30T00:16:23.156Z,100622.70
2024-01-30T00:21:25.685Z,100623.19
2024-01-30T00:26:27.536Z,100630.21
2024-01-30T00:31:30.122Z,100630.36
2024-01-30T00:36:32.109Z,100628.36
2024-01-30T00:41:33.817Z,100620.90
2024-01-30T00:46:35.684Z,100626.02
2024-01-30T00:51:37.547Z,100626.62
2024-01-30T00:56:39.559Z,100624.38
2024-01-30T01:01:43.489Z,100619.92
2024-01-30T01:06:45.712Z,100616.39
2024-01-30T01:11:48.389Z,100619.22
2024-01-30T01:16:52.796Z,100608.98
2024-01-30T01:21:54.743Z,100609.76
2024-01-30T01:26:57.851Z,100621.37
2024-01-30T01:31:59.740Z,100618.27
2024-01-30T01:37:01.647Z,100615.48
2024-01-30T01:42:03.868Z,100607.82
2024-01-30T01:47:05.732Z,100600.80
2024-01-30T01:52:07.782Z,100597.41
2024-01-30T01:57:09.701Z,100598.17
2024-01-30T02:02:12.661Z,100599.64
2024-01-30T02:07:14.661Z,100601.49
2024-01-30T02:12:16.595Z,100595.65
2024-01-30T02:17:18.486Z,100591.52
2024-01-30T02:22:21.649Z,100589.30
2024-01-30T02:27:23.751Z,100580.70
2024-01-30T02:32:25.618Z,100575.35
2024-01-30T02:37:27.514Z,100583.04
2024-01-30T02:42:29.395Z,100579.31
2024-01-30T02:47:31.303Z,100576.92
2024-01-30T02:52:33.302Z,100573.86
2024-01-30T02:57:35.136Z,100568.60
2024-01-30T03:02:39.062Z,100561.86
2024-01-30T03:07:41.126Z,100553.14
2024-01-30T03:12:43.013Z,100556.52
2024-01-30T03:17:45.054Z,100551.32
2024-01-30T03:22:46.870Z,100556.77
2024-01-30T03:27:48.660Z,100558.27
2024-01-30T03:32:50.946Z,100561.74
2024-01-30T03:37:52.845Z,100564.09
2024-01-30T03:42:54.697Z,100565.39
2024-01-30T03:47:56.523Z,100563.75
2024-01-30T03:52:58.487Z,100565.66
2024-01-30T03:58:00.359Z,100566.58
2024-01-30T04:03:02.446Z,100569.14
2024-01-30T04:08:04.741Z,100569.02
2024-01-30T04:13:08.144Z,100563.59
2024-01-30T04:18:11.882Z,100555.98
2024-01-30T04:23:13.662Z,100557.41
2024-01-30T04:28:15.584Z,100555.36
2024-01-30T04:33:19.008Z,100554.92
2024-01-30T04:38:20.758Z,100564.23
2024-01-30T04:43:22.502Z,100562.79
2024-01-30T04:48:24.572Z,100563.40
2024-01-30T04:53:26.298Z,100573.61
2024-01-30T04:58:28.141Z,100580.27
2024-01-30T05:03:34.434Z,100579.69
2024-01-30T05:08:37.446Z,100576.11
2024-01-30T05:13:42.085Z,100569.58
2024-01-30T05:18:44.031Z,100568.92
2024-01-30T05:23:45.986Z,100574.63
2024-01-30T05:28:48.755Z,100573.58
2024-01-30T05:33:50.799Z,100572.17
2024-01-30T05:38:52.834Z,100573.08
2024-01-30T05:43:54.872Z,100571.29
2024-01-30T05:48:56.685Z,100570.82
2024-01-30T05:53:58.548Z,100572.35
2024-01-30T05:59:00.420Z,100573.23
2024-01-30T06:04:02.608Z,100581.71
2024-01-30T06:09:04.580Z,100580.50
2024-01-30T06:14:09.658Z,100576.02
2024-01-30T06:19:11.534Z,100572.13
2024-01-30T06:24:13.439Z,100574.44
2024-01-30T06:29:19.941Z,100577.99
2024-01-30T06:34:22.345Z,100572.47
2024-01-30T06:39:24.280Z,100574.68
2024-01-30T06:44:26.146Z,100573.88
2024-01-30T06:49:28.136Z,100572.44
2024-01-30T06:54:30.031Z,100573.00
2024-01-30T06:59:32.287Z,100569.95
2024-01-30T07:04:34.346Z,100566.84
2024-01-30T07:09:36.993Z,100568.33
2024-01-30T07:14:38.881Z,100575.55
2024-01-30T07:19:40.737Z,100577.70
2024-01-30T07:24:48.795Z,100574.82
2024-01-30T07:29:50.534Z,100575.36
2024-01-30T07:35:02.500Z,100576.13
2024-01-30T07:40:09.692Z,100572.11
2024-01-30T07:45:11.619Z,100575.52
2024-01-30T07:50:13.588Z,100571.06
2024-01-30T07:55:15.422Z,100568.40
2024-01-30T08:00:17.935Z,100571.29
2024-01-30T08:05:19.926Z,100566.76
2024-01-30T08:10:22.070Z,100569.79
2024-01-30T08:15:23.996Z,100572.00
2024-01-30T08:20:26.207Z,100576.17
2024-01-30T08:25:28.055Z,100576.42
2024-01-30T08:30:30.028Z,100577.23
2024-01-30T08:35:34.173Z,100575.24
2024-01-30T08:40:36.250Z,100564.06
2024-01-30T08:45:38.215Z,100567.88
2024-01-30T08:50:39.987Z,100573.26
2024-01-30T08:55:41.771Z,100573.55
2024-01-30T09:00:43.649Z,100572.17
2024-01-30T09:05:45.550Z,100569.27
2024-01-30T09:10:47.529Z,100563.92
2024-01-30T09:15:49.653Z,100566.16
2024-01-30T09:20:51.583Z,100563.09
2024-01-30T09:25:53.431Z,100562.10
2024-01-30T09:30:55.435Z,100554.98
2024-01-30T09:35:57.344Z,100544.05
2024-01-30T09:41:02.186Z,100536.15
2024-01-30T09:46:04.352Z,100535.47
2024-01-30T09:51:06.190Z,100529.20
2024-01-30T09:56:08.457Z,100529.14
2024-01-30T10:01:11.180Z,100523.22
2024-01-30T10:06:14.499Z,100519.20
2024-01-30T10:11:16.450Z,100516.66
2024-01-30T10:16:18.385Z,100514.38
2024-01-30T10:21:20.344Z,100501.66
2024-01-30T10:26:22.111Z,100498.61
2024-01-30T10:31:24.999Z,100499.71
2024-01-30T10:36:30.268Z,100494.40
2024-01-30T10:41:34.407Z,100491.73
2024-01-30T10:46:38.981Z,100482.52
2024-01-30T10:51:41.620Z,100476.36
2024-01-30T10:56:43.614Z,100465.37
2024-01-30T11:01:46.155Z,100461.88
2024-01-30T11:06:50.099Z,100455.06
2024-01-30T11:12:02.449Z,100453.27
2024-01-30T11:17:04.584Z,100453.04
2024-01-30T11:22:12.540Z,100448.39
2024-01-30T11:27:15.792Z,100439.08
2024-01-30T11:32:24.725Z,100430.02
2024-01-30T11:37:28.159Z,100428.05
2024-01-30T11:42:30.913Z,100422.61
2024-01-30T11:47:39.495Z,100418.44
2024-01-30T11:52:43.805Z,100414.52
2024-01-30T11:57:46.044Z,100416.36
2024-01-30T12:02:51.961Z,100414.38
2024-01-30T12:07:53.980Z,100412.98
2024-01-30T12:12:56.436Z,100412.11
2024-01-30T12:18:08.884Z,100402.59
2024-01-30T12:23:12.792Z,100395.23
2024-01-30T12:28:16.469Z,100387.83
2024-01-30T12:33:21.552Z,100385.16
2024-01-30T12:38:25.199Z,100388.54
2024-01-30T12:43:34.979Z,100384.17
2024-01-30T12:48:40.464Z,100383.14
2024-01-30T12:53:42.347Z,100378.02
2024-01-30T12:58:45.350Z,100378.96
2024-01-30T13:03:48.409Z,100375.00
2024-01-30T13:08:50.318Z,100374.30
2024-01-30T13:13:53.594Z,100371.65
2024-01-30T13:18:56.212Z,100363.80
2024-01-30T13:23:58.240Z,100359.04
2024-01-30T13:29:02.236Z,100358.27
2024-01-30T13:34:07.024Z,100357.63
2024-01-30T13:39:11.341Z,100353.93
2024-01-30T13:44:13.292Z,100349.95
2024-01-30T13:49:15.171Z,100345.45
2024-01-30T13:54:17.286Z,100346.52
2024-01-30T13:59:24.248Z,100346.33
2024-01-30T14:04:26.190Z,100349.95
2024-01-30T14:09:29.574Z,100341.52
2024-01-30T14:14:31.400Z,100343.18
2024-01-30T14:19:34.749Z,100339.68
2024-01-30T14:24:37.987Z,100338.84
2024-01-30T14:29:40.067Z,100339.90
2024-01-30T14:34:42.327Z,100340.02
2024-01-30T14:39:44.403Z,100338.04
2024-01-30T14:44:46.132Z,100337.69
2024-01-30T14:49:48.097Z,100332.83
2024-01-30T14:54:50.140Z,100327.54
2024-01-30T14:59:52.083Z,100331.45
2024-01-30T15:04:56.508Z,100333.52
2024-01-30T15:09:58.431Z,100334.21
2024-01-30T15:15:02.055Z,100335.09
2024-01-30T15:20:04.817Z,100335.62
2024-01-30T15:25:07.250Z,100336.37
2024-01-30T15:30:11.997Z,100335.44
2024-01-30T15:35:14.045Z,100335.59
2024-01-30T15:40:16.393Z,100338.36
2024-01-30T15:45:18.209Z,100335.95
2024-01-30T15:50:20.170Z,100332.38
2024-01-30T15:55:21.978Z,100328.73
2024-01-30T16:00:23.964Z,100323.27
2024-01-30T16:05:25.753Z,100324.70
2024-01-30T16:10:27.810Z,100321.73
2024-01-30T16:15:29.678Z,100317.73
2024-01-30T16:20:31.642Z,100316.83
2024-01-30T16:25:33.677Z,100312.59
2024-01-30T16:30:35.562Z,100313.73
2024-01-30T16:35:45.531Z,100316.33
2024-01-30T16:40:50.525Z,100313.35
2024-01-30T16:45:52.344Z,100310.81
2024-01-30T16:50:54.161Z,100317.33
2024-01-30T16:55:55.957Z,100320.99
2024-01-30T17:00:58.341Z,100317.98
2024-01-30T17:06:06.087Z,100307.52
2024-01-30T17:11:09.591Z,100306.23
2024-01-30T17:16:12.353Z,100310.73
2024-01-30T17:21:21.154Z,100308.10
2024-01-30T17:26:23.099Z,100301.27
2024-01-30T17:31:25.789Z,100301.73
2024-01-30T17:36:27.601Z,100290.85
2024-01-30T17:41:29.462Z,100290.61
2024-01-30T17:46:32.094Z,100295.42
2024-01-30T17:51:34.180Z,100301.07
2024-01-30T17:56:36.728Z,100297.96
2024-01-30T18:01:38.709Z,100301.73
2024-01-30T18:06:40.613Z,100303.20
2024-01-30T18:11:42.555Z,100296.39
2024-01-30T18:16:44.526Z,100295.70
2024-01-30T18:21:46.475Z,100301.46
2024-01-30T18:26:48.342Z,100302.02
2024-01-30T18:31:50.520Z,100297.68
2024-01-30T18:36:52.674Z,100299.36
2024-01-30T18:41:54.866Z,100299.52
2024-01-30T18:46:56.735Z,100295.98
2024-01-30T18:51:59.958Z,100301.86
2024-01-30T18:57:01.906Z,100307.56
2024-01-30T19:02:06.968Z,100304.10
2024-01-30T19:07:09.457Z,100309.61
2024-01-30T19:12:12.351Z,100308.52
2024-01-30T19:17:15.325Z,100306.48
2024-01-30T19:22:19.414Z,100305.47
2024-01-30T19:27:21.301Z,100303.03
2024-01-30T19:32:23.658Z,100302.56
2024-01-30T19:37:25.857Z,100301.08
2024-01-30T19:42:30.122Z,100301.23
2024-01-30T19:47:31.886Z,100303.15
2024-01-30T19:52:34.708Z,100302.57
2024-01-30T19:57:39.408Z,100302.39
2024-01-30T20:02:41.708Z,100303.52
2024-01-30T20:07:43.641Z,100302.70
2024-01-30T20:12:45.611Z,100303.79
2024-01-30T20:17:48.332Z,100307.49
2024-01-30T20:22:50.139Z,100309.09
2024-01-30T20:27:52.086Z,100310.44
2024-01-30T20:32:55.549Z,100306.20
2024-01-30T20:37:58.187Z,100304.71
2024-01-30T20:43:02.497Z,100304.26
2024-01-30T20:48:04.936Z,100300.33
2024-01-30T20:53:27.202Z,100301.41
2024-01-30T20:58:29.167Z,100300.71
2024-01-30T21:03:32.477Z,100300.73
2024-01-30T21:08:34.411Z,100302.88
2024-01-30T21:13:36.860Z,100300.45
2024-01-30T21:18:41.537Z,100287.08
2024-01-30T21:23:46.400Z,100292.77
2024-01-30T21:28:48.400Z,100292.38
2024-01-30T21:33:52.342Z,100285.74
2024-01-30T21:38:54.372Z,100281.70
2024-01-30T21:43:56.148Z,100286.58
2024-01-30T21:48:58.001Z,100284.59
2024-01-30T21:53:59.960Z,100284.73
2024-01-30T21:59:04.788Z,100288.30
2024-01-30T22:04:07.290Z,100292.91
2024-01-30T22:09:10.247Z,100295.89
2024-01-30T22:14:12.069Z,100298.10
2024-01-30T22:19:14.320Z,100293.29
2024-01-30T22:24:16.163Z,100294.70
2024-01-30T22:29:17.954Z,100285.55
2024-01-30T22:34:19.900Z,100296.80
2024-01-30T22:39:21.745Z,100299.17
2024-01-30T22:44:23.792Z,100298.94
2024-01-30T22:49:25.856Z,100300.48
2024-01-30T22:54:27.754Z,100297.00
2024-01-30T22:59:29.614Z,100305.92
2024-01-30T23:04:31.538Z,100302.80
2024-01-30T23:09:36.136Z,100303.85
2024-01-30T23:14:38.023Z,100307.54
2024-01-30T23:19:39.988Z,100307.48
2024-01-30T23:24:41.780Z,100302.19
2024-01-30T23:29:43.580Z,100298.09
2024-01-30T23:34:45.411Z,100294.86
2024-01-30T23:39:47.158Z,100295.05
2024-01-30T23:44:48.949Z,100299.90
2024-01-30T23:49:50.966Z,100305.13
2024-01-30T23:54:52.708Z,100307.27
2024-01-30T23:59:57.358Z,100309.56
